sensor_id;sensor_type;location;lat;lon;timestamp;P1;durP1;ratioP1;P2;durP2;ratioP2
31920;SDS011;66485;52.128;4.436;2023-04-24T00:01:14;1.85;;;0.70;;
31920;SDS011;66485;52.128;4.436;2023-04-24T00:03:40;1.08;;;0.60;;
31920;SDS011;66485;52.128;4.436;2023-04-24T00:06:06;1.33;;;0.70;;
31920;SDS011;66485;52.128;4.436;2023-04-24T00:08:33;0.60;;;0.60;;
31920;SDS011;66485;52.128;4.436;2023-04-24T00:10:59;0.90;;;0.50;;
31920;SDS011;66485;52.128;4.436;2023-04-24T00:13:24;0.98;;;0.50;;
31920;SDS011;66485;52.128;4.436;2023-04-24T00:15:50;3.30;;;0.80;;
31920;SDS011;66485;52.128;4.436;2023-04-24T00:18:15;1.75;;;0.60;;
31920;SDS011;66485;52.128;4.436;2023-04-24T00:20:40;0.65;;;0.60;;
31920;SDS011;66485;52.128;4.436;2023-04-24T00:23:06;1.23;;;0.57;;
31920;SDS011;66485;52.128;4.436;2023-04-24T00:25:31;0.82;;;0.60;;
31920;SDS011;66485;52.128;4.436;2023-04-24T00:27:57;0.93;;;0.55;;
31920;SDS011;66485;52.128;4.436;2023-04-24T00:30:22;0.80;;;0.47;;
31920;SDS011;66485;52.128;4.436;2023-04-24T00:32:47;0.98;;;0.63;;
31920;SDS011;66485;52.128;4.436;2023-04-24T00:35:13;0.82;;;0.60;;
31920;SDS011;66485;52.128;4.436;2023-04-24T00:37:39;0.45;;;0.40;;
31920;SDS011;66485;52.128;4.436;2023-04-24T00:40:05;1.33;;;0.70;;
31920;SDS011;66485;52.128;4.436;2023-04-24T00:42:31;1.08;;;0.50;;
31920;SDS011;66485;52.128;4.436;2023-04-24T00:44:56;1.30;;;0.50;;
31920;SDS011;66485;52.128;4.436;2023-04-24T00:47:22;0.75;;;0.50;;
31920;SDS011;66485;52.128;4.436;2023-04-24T00:49:49;1.83;;;0.60;;
31920;SDS011;66485;52.128;4.436;2023-04-24T00:52:14;1.13;;;0.50;;
31920;SDS011;66485;52.128;4.436;2023-04-24T00:54:43;0.77;;;0.57;;
31920;SDS011;66485;52.128;4.436;2023-04-24T00:57:09;0.73;;;0.50;;
31920;SDS011;66485;52.128;4.436;2023-04-24T00:59:35;0.57;;;0.50;;
31920;SDS011;66485;52.128;4.436;2023-04-24T01:02:01;1.33;;;0.60;;
31920;SDS011;66485;52.128;4.436;2023-04-24T01:04:27;1.08;;;0.60;;
31920;SDS011;66485;52.128;4.436;2023-04-24T01:06:52;3.20;;;0.95;;
31920;SDS011;66485;52.128;4.436;2023-04-24T01:09:19;0.60;;;0.55;;
31920;SDS011;66485;52.128;4.436;2023-04-24T01:11:48;1.00;;;0.68;;
31920;SDS011;66485;52.128;4.436;2023-04-24T01:14:13;0.85;;;0.47;;
31920;SDS011;66485;52.128;4.436;2023-04-24T01:16:39;0.98;;;0.40;;
31920;SDS011;66485;52.128;4.436;2023-04-24T01:19:05;0.50;;;0.50;;
31920;SDS011;66485;52.128;4.436;2023-04-24T01:21:31;1.08;;;0.55;;
31920;SDS011;66485;52.128;4.436;2023-04-24T01:24:01;2.67;;;0.75;;
31920;SDS011;66485;52.128;4.436;2023-04-24T01:26:27;0.80;;;0.63;;
31920;SDS011;66485;52.128;4.436;2023-04-24T01:28:52;0.50;;;0.40;;
31920;SDS011;66485;52.128;4.436;2023-04-24T01:31:18;0.65;;;0.50;;
31920;SDS011;66485;52.128;4.436;2023-04-24T01:33:44;0.82;;;0.50;;
31920;SDS011;66485;52.128;4.436;2023-04-24T01:36:10;0.60;;;0.40;;
31920;SDS011;66485;52.128;4.436;2023-04-24T01:38:36;0.93;;;0.50;;
31920;SDS011;66485;52.128;4.436;2023-04-24T01:41:02;1.05;;;0.50;;
31920;SDS011;66485;52.128;4.436;2023-04-24T01:43:27;1.02;;;0.60;;
31920;SDS011;66485;52.128;4.436;2023-04-24T01:45:53;0.63;;;0.40;;
31920;SDS011;66485;52.128;4.436;2023-04-24T01:48:18;1.55;;;0.63;;
31920;SDS011;66485;52.128;4.436;2023-04-24T01:50:43;1.42;;;0.50;;
31920;SDS011;66485;52.128;4.436;2023-04-24T01:53:09;0.80;;;0.40;;
31920;SDS011;66485;52.128;4.436;2023-04-24T01:55:34;1.00;;;0.40;;
31920;SDS011;66485;52.128;4.436;2023-04-24T01:58:00;1.38;;;0.50;;
31920;SDS011;66485;52.128;4.436;2023-04-24T02:00:27;0.82;;;0.40;;
31920;SDS011;66485;52.128;4.436;2023-04-24T02:02:52;0.65;;;0.40;;
31920;SDS011;66485;52.128;4.436;2023-04-24T02:05:17;2.63;;;0.50;;
31920;SDS011;66485;52.128;4.436;2023-04-24T02:07:43;1.23;;;0.55;;
31920;SDS011;66485;52.128;4.436;2023-04-24T02:10:08;0.88;;;0.45;;
31920;SDS011;66485;52.128;4.436;2023-04-24T02:12:34;0.82;;;0.30;;
31920;SDS011;66485;52.128;4.436;2023-04-24T02:15:00;0.85;;;0.40;;
31920;SDS011;66485;52.128;4.436;2023-04-24T02:17:25;1.00;;;0.40;;
31920;SDS011;66485;52.128;4.436;2023-04-24T02:19:50;0.73;;;0.50;;
31920;SDS011;66485;52.128;4.436;2023-04-24T02:22:16;1.15;;;0.50;;
31920;SDS011;66485;52.128;4.436;2023-04-24T02:24:41;1.33;;;0.57;;
31920;SDS011;66485;52.128;4.436;2023-04-24T02:27:07;1.50;;;0.45;;
31920;SDS011;66485;52.128;4.436;2023-04-24T02:29:32;1.05;;;0.50;;
31920;SDS011;66485;52.128;4.436;2023-04-24T02:31:57;0.65;;;0.40;;
31920;SDS011;66485;52.128;4.436;2023-04-24T02:34:23;0.65;;;0.30;;
31920;SDS011;66485;52.128;4.436;2023-04-24T02:36:48;1.40;;;0.50;;
31920;SDS011;66485;52.128;4.436;2023-04-24T02:39:14;0.73;;;0.43;;
31920;SDS011;66485;52.128;4.436;2023-04-24T02:41:41;0.52;;;0.30;;
31920;SDS011;66485;52.128;4.436;2023-04-24T02:44:07;0.75;;;0.47;;
31920;SDS011;66485;52.128;4.436;2023-04-24T02:46:32;1.63;;;0.55;;
31920;SDS011;66485;52.128;4.436;2023-04-24T02:48:58;0.68;;;0.40;;
31920;SDS011;66485;52.128;4.436;2023-04-24T02:51:23;1.15;;;0.32;;
31920;SDS011;66485;52.128;4.436;2023-04-24T02:53:48;0.95;;;0.40;;
31920;SDS011;66485;52.128;4.436;2023-04-24T02:56:14;2.33;;;0.50;;
31920;SDS011;66485;52.128;4.436;2023-04-24T02:58:39;1.70;;;0.50;;
31920;SDS011;66485;52.128;4.436;2023-04-24T03:01:05;0.57;;;0.40;;
31920;SDS011;66485;52.128;4.436;2023-04-24T03:03:30;1.05;;;0.50;;
31920;SDS011;66485;52.128;4.436;2023-04-24T03:05:55;0.73;;;0.30;;
31920;SDS011;66485;52.128;4.436;2023-04-24T03:08:22;0.70;;;0.40;;
31920;SDS011;66485;52.128;4.436;2023-04-24T03:10:47;0.30;;;0.30;;
31920;SDS011;66485;52.128;4.436;2023-04-24T03:13:12;0.70;;;0.40;;
31920;SDS011;66485;52.128;4.436;2023-04-24T03:15:38;0.40;;;0.40;;
31920;SDS011;66485;52.128;4.436;2023-04-24T03:18:03;1.13;;;0.30;;
31920;SDS011;66485;52.128;4.436;2023-04-24T03:20:29;0.90;;;0.47;;
31920;SDS011;66485;52.128;4.436;2023-04-24T03:22:54;0.28;;;0.28;;
31920;SDS011;66485;52.128;4.436;2023-04-24T03:25:19;1.48;;;0.40;;
31920;SDS011;66485;52.128;4.436;2023-04-24T03:27:45;0.43;;;0.30;;
31920;SDS011;66485;52.128;4.436;2023-04-24T03:30:11;1.17;;;0.40;;
31920;SDS011;66485;52.128;4.436;2023-04-24T03:32:36;0.30;;;0.30;;
31920;SDS011;66485;52.128;4.436;2023-04-24T03:35:04;1.55;;;0.60;;
31920;SDS011;66485;52.128;4.436;2023-04-24T03:37:31;0.30;;;0.30;;
31920;SDS011;66485;52.128;4.436;2023-04-24T03:39:56;0.75;;;0.40;;
31920;SDS011;66485;52.128;4.436;2023-04-24T03:42:21;0.30;;;0.30;;
31920;SDS011;66485;52.128;4.436;2023-04-24T03:44:47;0.60;;;0.40;;
31920;SDS011;66485;52.128;4.436;2023-04-24T03:47:12;1.98;;;0.38;;
31920;SDS011;66485;52.128;4.436;2023-04-24T03:49:37;1.90;;;0.40;;
31920;SDS011;66485;52.128;4.436;2023-04-24T03:52:02;1.10;;;0.30;;
31920;SDS011;66485;52.128;4.436;2023-04-24T03:54:28;0.40;;;0.38;;
31920;SDS011;66485;52.128;4.436;2023-04-24T03:56:53;0.52;;;0.32;;
31920;SDS011;66485;52.128;4.436;2023-04-24T03:59:18;0.30;;;0.30;;
31920;SDS011;66485;52.128;4.436;2023-04-24T04:01:44;0.43;;;0.30;;
31920;SDS011;66485;52.128;4.436;2023-04-24T04:04:10;1.50;;;0.32;;
31920;SDS011;66485;52.128;4.436;2023-04-24T04:06:35;0.50;;;0.40;;
31920;SDS011;66485;52.128;4.436;2023-04-24T04:09:01;1.33;;;0.35;;
31920;SDS011;66485;52.128;4.436;2023-04-24T04:11:26;0.95;;;0.30;;
31920;SDS011;66485;52.128;4.436;2023-04-24T04:13:52;0.43;;;0.20;;
31920;SDS011;66485;52.128;4.436;2023-04-24T04:16:17;0.40;;;0.38;;
31920;SDS011;66485;52.128;4.436;2023-04-24T04:18:43;0.30;;;0.30;;
31920;SDS011;66485;52.128;4.436;2023-04-24T04:21:08;0.68;;;0.32;;
31920;SDS011;66485;52.128;4.436;2023-04-24T04:23:34;0.57;;;0.30;;
31920;SDS011;66485;52.128;4.436;2023-04-24T04:26:00;0.60;;;0.40;;
31920;SDS011;66485;52.128;4.436;2023-04-24T04:28:26;0.63;;;0.32;;
31920;SDS011;66485;52.128;4.436;2023-04-24T04:30:51;0.28;;;0.28;;
31920;SDS011;66485;52.128;4.436;2023-04-24T04:33:20;0.63;;;0.40;;
31920;SDS011;66485;52.128;4.436;2023-04-24T04:35:46;0.30;;;0.30;;
31920;SDS011;66485;52.128;4.436;2023-04-24T04:38:14;0.20;;;0.20;;
31920;SDS011;66485;52.128;4.436;2023-04-24T04:40:39;0.20;;;0.20;;
31920;SDS011;66485;52.128;4.436;2023-04-24T04:43:05;0.68;;;0.30;;
31920;SDS011;66485;52.128;4.436;2023-04-24T04:45:31;0.95;;;0.35;;
31920;SDS011;66485;52.128;4.436;2023-04-24T04:47:57;1.08;;;0.40;;
31920;SDS011;66485;52.128;4.436;2023-04-24T04:50:25;0.25;;;0.25;;
31920;SDS011;66485;52.128;4.436;2023-04-24T04:52:51;0.38;;;0.38;;
31920;SDS011;66485;52.128;4.436;2023-04-24T04:55:17;0.88;;;0.30;;
31920;SDS011;66485;52.128;4.436;2023-04-24T04:57:43;0.50;;;0.30;;
31920;SDS011;66485;52.128;4.436;2023-04-24T05:00:08;0.38;;;0.30;;
31920;SDS011;66485;52.128;4.436;2023-04-24T05:02:35;0.63;;;0.43;;
31920;SDS011;66485;52.128;4.436;2023-04-24T05:05:00;2.33;;;0.43;;
31920;SDS011;66485;52.128;4.436;2023-04-24T05:07:26;0.60;;;0.35;;
31920;SDS011;66485;52.128;4.436;2023-04-24T05:09:51;0.50;;;0.40;;
31920;SDS011;66485;52.128;4.436;2023-04-24T05:12:17;2.45;;;0.45;;
31920;SDS011;66485;52.128;4.436;2023-04-24T05:14:42;0.57;;;0.40;;
31920;SDS011;66485;52.128;4.436;2023-04-24T05:17:07;1.20;;;0.50;;
31920;SDS011;66485;52.128;4.436;2023-04-24T05:19:33;1.40;;;0.60;;
31920;SDS011;66485;52.128;4.436;2023-04-24T05:22:00;0.30;;;0.30;;
31920;SDS011;66485;52.128;4.436;2023-04-24T05:24:28;1.30;;;0.50;;
31920;SDS011;66485;52.128;4.436;2023-04-24T05:26:53;0.75;;;0.35;;
31920;SDS011;66485;52.128;4.436;2023-04-24T05:29:18;1.63;;;0.60;;
31920;SDS011;66485;52.128;4.436;2023-04-24T05:31:44;3.05;;;0.60;;
31920;SDS011;66485;52.128;4.436;2023-04-24T05:34:09;0.90;;;0.43;;
31920;SDS011;66485;52.128;4.436;2023-04-24T05:36:35;1.00;;;0.52;;
31920;SDS011;66485;52.128;4.436;2023-04-24T05:39:00;1.27;;;0.52;;
31920;SDS011;66485;52.128;4.436;2023-04-24T05:41:25;1.90;;;0.50;;
31920;SDS011;66485;52.128;4.436;2023-04-24T05:43:51;1.10;;;0.60;;
31920;SDS011;66485;52.128;4.436;2023-04-24T05:46:16;0.82;;;0.60;;
31920;SDS011;66485;52.128;4.436;2023-04-24T05:48:41;0.90;;;0.60;;
31920;SDS011;66485;52.128;4.436;2023-04-24T05:51:07;1.50;;;0.60;;
31920;SDS011;66485;52.128;4.436;2023-04-24T05:53:32;1.17;;;0.60;;
31920;SDS011;66485;52.128;4.436;2023-04-24T05:55:57;2.70;;;0.98;;
31920;SDS011;66485;52.128;4.436;2023-04-24T05:58:23;0.65;;;0.57;;
31920;SDS011;66485;52.128;4.436;2023-04-24T06:00:48;1.77;;;0.90;;
31920;SDS011;66485;52.128;4.436;2023-04-24T06:03:14;1.85;;;0.70;;
31920;SDS011;66485;52.128;4.436;2023-04-24T06:05:40;1.25;;;0.63;;
31920;SDS011;66485;52.128;4.436;2023-04-24T06:08:05;1.13;;;0.65;;
31920;SDS011;66485;52.128;4.436;2023-04-24T06:10:31;2.45;;;0.88;;
31920;SDS011;66485;52.128;4.436;2023-04-24T06:12:57;1.95;;;0.90;;
31920;SDS011;66485;52.128;4.436;2023-04-24T06:15:25;2.20;;;0.80;;
31920;SDS011;66485;52.128;4.436;2023-04-24T06:17:53;1.38;;;0.75;;
31920;SDS011;66485;52.128;4.436;2023-04-24T06:20:18;2.97;;;0.80;;
31920;SDS011;66485;52.128;4.436;2023-04-24T06:22:43;2.38;;;0.90;;
31920;SDS011;66485;52.128;4.436;2023-04-24T06:25:09;3.78;;;0.90;;
31920;SDS011;66485;52.128;4.436;2023-04-24T06:27:34;1.67;;;0.80;;
31920;SDS011;66485;52.128;4.436;2023-04-24T06:30:00;2.47;;;1.08;;
31920;SDS011;66485;52.128;4.436;2023-04-24T06:32:25;2.80;;;1.00;;
31920;SDS011;66485;52.128;4.436;2023-04-24T06:34:52;2.88;;;1.08;;
31920;SDS011;66485;52.128;4.436;2023-04-24T06:37:18;3.80;;;1.10;;
31920;SDS011;66485;52.128;4.436;2023-04-24T06:39:44;2.08;;;0.90;;
31920;SDS011;66485;52.128;4.436;2023-04-24T06:42:09;2.65;;;0.90;;
31920;SDS011;66485;52.128;4.436;2023-04-24T06:44:35;2.30;;;0.88;;
31920;SDS011;66485;52.128;4.436;2023-04-24T06:47:08;2.47;;;1.00;;
31920;SDS011;66485;52.128;4.436;2023-04-24T06:49:35;2.67;;;0.95;;
31920;SDS011;66485;52.128;4.436;2023-04-24T06:52:01;1.50;;;0.90;;
31920;SDS011;66485;52.128;4.436;2023-04-24T06:54:27;4.10;;;1.50;;
31920;SDS011;66485;52.128;4.436;2023-04-24T06:56:52;3.95;;;1.17;;
31920;SDS011;66485;52.128;4.436;2023-04-24T06:59:17;3.17;;;1.00;;
31920;SDS011;66485;52.128;4.436;2023-04-24T07:01:42;2.20;;;1.10;;
31920;SDS011;66485;52.128;4.436;2023-04-24T07:04:08;5.03;;;1.13;;
31920;SDS011;66485;52.128;4.436;2023-04-24T07:06:33;2.60;;;1.00;;
31920;SDS011;66485;52.128;4.436;2023-04-24T07:09:00;1.90;;;0.80;;
31920;SDS011;66485;52.128;4.436;2023-04-24T07:11:26;4.38;;;1.10;;
31920;SDS011;66485;52.128;4.436;2023-04-24T07:13:54;2.15;;;0.90;;
31920;SDS011;66485;52.128;4.436;2023-04-24T07:16:20;3.28;;;1.00;;
31920;SDS011;66485;52.128;4.436;2023-04-24T07:18:45;3.22;;;1.33;;
31920;SDS011;66485;52.128;4.436;2023-04-24T07:21:10;4.80;;;1.33;;
31920;SDS011;66485;52.128;4.436;2023-04-24T07:23:36;2.47;;;0.98;;
31920;SDS011;66485;52.128;4.436;2023-04-24T07:26:01;2.38;;;1.20;;
31920;SDS011;66485;52.128;4.436;2023-04-24T07:28:27;5.07;;;1.85;;
31920;SDS011;66485;52.128;4.436;2023-04-24T07:30:55;7.30;;;1.10;;
31920;SDS011;66485;52.128;4.436;2023-04-24T07:33:21;2.53;;;1.38;;
31920;SDS011;66485;52.128;4.436;2023-04-24T07:35:46;4.63;;;1.00;;
31920;SDS011;66485;52.128;4.436;2023-04-24T07:38:12;3.65;;;1.40;;
31920;SDS011;66485;52.128;4.436;2023-04-24T07:40:37;2.05;;;1.05;;
31920;SDS011;66485;52.128;4.436;2023-04-24T07:43:02;6.18;;;1.42;;
31920;SDS011;66485;52.128;4.436;2023-04-24T07:45:28;3.78;;;1.23;;
31920;SDS011;66485;52.128;4.436;2023-04-24T07:47:53;3.28;;;1.10;;
31920;SDS011;66485;52.128;4.436;2023-04-24T07:50:19;5.18;;;1.40;;
31920;SDS011;66485;52.128;4.436;2023-04-24T07:52:44;3.65;;;1.45;;
31920;SDS011;66485;52.128;4.436;2023-04-24T07:55:10;6.35;;;1.20;;
31920;SDS011;66485;52.128;4.436;2023-04-24T07:57:35;5.13;;;1.10;;
31920;SDS011;66485;52.128;4.436;2023-04-24T08:00:02;2.78;;;1.00;;
31920;SDS011;66485;52.128;4.436;2023-04-24T08:02:28;3.67;;;1.13;;
31920;SDS011;66485;52.128;4.436;2023-04-24T08:04:54;4.13;;;1.33;;
31920;SDS011;66485;52.128;4.436;2023-04-24T08:07:19;3.53;;;1.30;;
31920;SDS011;66485;52.128;4.436;2023-04-24T08:09:45;5.35;;;1.38;;
31920;SDS011;66485;52.128;4.436;2023-04-24T08:12:10;4.30;;;1.30;;
31920;SDS011;66485;52.128;4.436;2023-04-24T08:14:36;3.60;;;1.10;;
31920;SDS011;66485;52.128;4.436;2023-04-24T08:17:01;4.43;;;1.30;;
31920;SDS011;66485;52.128;4.436;2023-04-24T08:19:27;3.28;;;1.20;;
31920;SDS011;66485;52.128;4.436;2023-04-24T08:21:52;3.60;;;1.15;;
31920;SDS011;66485;52.128;4.436;2023-04-24T08:24:18;6.38;;;1.20;;
31920;SDS011;66485;52.128;4.436;2023-04-24T08:26:43;3.28;;;1.17;;
31920;SDS011;66485;52.128;4.436;2023-04-24T08:29:09;2.85;;;1.15;;
31920;SDS011;66485;52.128;4.436;2023-04-24T08:31:34;3.95;;;1.30;;
31920;SDS011;66485;52.128;4.436;2023-04-24T08:34:00;2.92;;;1.10;;
31920;SDS011;66485;52.128;4.436;2023-04-24T08:36:25;3.63;;;1.20;;
31920;SDS011;66485;52.128;4.436;2023-04-24T08:38:51;3.97;;;1.08;;
31920;SDS011;66485;52.128;4.436;2023-04-24T08:41:17;2.95;;;0.90;;
31920;SDS011;66485;52.128;4.436;2023-04-24T08:43:45;3.10;;;1.10;;
31920;SDS011;66485;52.128;4.436;2023-04-24T08:46:11;5.70;;;1.20;;
31920;SDS011;66485;52.128;4.436;2023-04-24T08:48:38;2.72;;;1.10;;
31920;SDS011;66485;52.128;4.436;2023-04-24T08:51:04;3.33;;;0.95;;
31920;SDS011;66485;52.128;4.436;2023-04-24T08:53:32;3.83;;;1.30;;
31920;SDS011;66485;52.128;4.436;2023-04-24T08:55:58;3.40;;;1.05;;
31920;SDS011;66485;52.128;4.436;2023-04-24T08:58:27;4.07;;;1.27;;
31920;SDS011;66485;52.128;4.436;2023-04-24T09:00:56;4.03;;;0.85;;
31920;SDS011;66485;52.128;4.436;2023-04-24T09:03:22;2.72;;;1.00;;
31920;SDS011;66485;52.128;4.436;2023-04-24T09:05:48;3.55;;;1.13;;
31920;SDS011;66485;52.128;4.436;2023-04-24T09:08:16;2.88;;;1.13;;
31920;SDS011;66485;52.128;4.436;2023-04-24T09:10:44;1.90;;;1.00;;
31920;SDS011;66485;52.128;4.436;2023-04-24T09:13:09;3.13;;;1.10;;
31920;SDS011;66485;52.128;4.436;2023-04-24T09:15:35;2.35;;;0.90;;
31920;SDS011;66485;52.128;4.436;2023-04-24T09:18:00;2.47;;;0.85;;
31920;SDS011;66485;52.128;4.436;2023-04-24T09:20:26;3.72;;;0.93;;
31920;SDS011;66485;52.128;4.436;2023-04-24T09:22:55;3.47;;;1.00;;
31920;SDS011;66485;52.128;4.436;2023-04-24T09:25:22;1.65;;;0.82;;
31920;SDS011;66485;52.128;4.436;2023-04-24T09:27:47;2.05;;;0.85;;
31920;SDS011;66485;52.128;4.436;2023-04-24T09:30:13;1.98;;;0.90;;
31920;SDS011;66485;52.128;4.436;2023-04-24T09:32:39;4.45;;;0.93;;
31920;SDS011;66485;52.128;4.436;2023-04-24T09:35:05;2.70;;;0.90;;
31920;SDS011;66485;52.128;4.436;2023-04-24T09:37:40;2.33;;;0.80;;
31920;SDS011;66485;52.128;4.436;2023-04-24T09:40:11;2.92;;;0.98;;
31920;SDS011;66485;52.128;4.436;2023-04-24T09:42:46;3.33;;;0.90;;
31920;SDS011;66485;52.128;4.436;2023-04-24T09:45:21;1.80;;;0.90;;
31920;SDS011;66485;52.128;4.436;2023-04-24T09:47:52;1.50;;;0.70;;
31920;SDS011;66485;52.128;4.436;2023-04-24T09:50:18;2.20;;;0.90;;
31920;SDS011;66485;52.128;4.436;2023-04-24T09:52:45;1.33;;;0.70;;
31920;SDS011;66485;52.128;4.436;2023-04-24T09:55:13;3.40;;;1.10;;
31920;SDS011;66485;52.128;4.436;2023-04-24T09:57:48;4.72;;;1.02;;
31920;SDS011;66485;52.128;4.436;2023-04-24T10:00:27;1.67;;;0.80;;
31920;SDS011;66485;52.128;4.436;2023-04-24T10:02:58;2.78;;;0.85;;
31920;SDS011;66485;52.128;4.436;2023-04-24T10:05:29;4.70;;;1.00;;
31920;SDS011;66485;52.128;4.436;2023-04-24T10:08:10;2.65;;;1.10;;
31920;SDS011;66485;52.128;4.436;2023-04-24T10:10:40;3.35;;;1.10;;
31920;SDS011;66485;52.128;4.436;2023-04-24T10:13:07;1.88;;;0.60;;
31920;SDS011;66485;52.128;4.436;2023-04-24T10:15:34;2.78;;;0.90;;
31920;SDS011;66485;52.128;4.436;2023-04-24T10:18:00;3.40;;;1.20;;
31920;SDS011;66485;52.128;4.436;2023-04-24T10:20:28;3.58;;;0.80;;
31920;SDS011;66485;52.128;4.436;2023-04-24T10:22:57;2.17;;;0.65;;
31920;SDS011;66485;52.128;4.436;2023-04-24T10:25:27;2.83;;;0.75;;
31920;SDS011;66485;52.128;4.436;2023-04-24T10:27:56;1.52;;;0.60;;
31920;SDS011;66485;52.128;4.436;2023-04-24T10:30:24;2.35;;;0.70;;
31920;SDS011;66485;52.128;4.436;2023-04-24T10:32:50;3.40;;;0.80;;
31920;SDS011;66485;52.128;4.436;2023-04-24T10:35:15;4.33;;;1.00;;
31920;SDS011;66485;52.128;4.436;2023-04-24T10:37:48;2.20;;;0.98;;
31920;SDS011;66485;52.128;4.436;2023-04-24T10:40:17;2.42;;;0.88;;
31920;SDS011;66485;52.128;4.436;2023-04-24T10:42:46;2.40;;;0.73;;
31920;SDS011;66485;52.128;4.436;2023-04-24T10:45:17;1.55;;;0.80;;
31920;SDS011;66485;52.128;4.436;2023-04-24T10:47:50;4.22;;;1.15;;
31920;SDS011;66485;52.128;4.436;2023-04-24T10:50:16;2.67;;;0.73;;
31920;SDS011;66485;52.128;4.436;2023-04-24T10:52:48;2.03;;;0.70;;
31920;SDS011;66485;52.128;4.436;2023-04-24T10:58:13;3.40;;;1.00;;
31920;SDS011;66485;52.128;4.436;2023-04-24T11:00:41;2.00;;;0.88;;
31920;SDS011;66485;52.128;4.436;2023-04-24T11:03:22;3.60;;;1.27;;
31920;SDS011;66485;52.128;4.436;2023-04-24T11:08:27;5.15;;;1.00;;
31920;SDS011;66485;52.128;4.436;2023-04-24T11:10:57;6.82;;;1.05;;
31920;SDS011;66485;52.128;4.436;2023-04-24T11:13:25;2.88;;;0.90;;
31920;SDS011;66485;52.128;4.436;2023-04-24T11:18:45;2.30;;;0.60;;
31920;SDS011;66485;52.128;4.436;2023-04-24T11:21:15;5.13;;;0.82;;
31920;SDS011;66485;52.128;4.436;2023-04-24T11:23:41;3.83;;;0.75;;
31920;SDS011;66485;52.128;4.436;2023-04-24T11:26:17;5.22;;;0.80;;
31920;SDS011;66485;52.128;4.436;2023-04-24T11:28:44;6.03;;;1.00;;
31920;SDS011;66485;52.128;4.436;2023-04-24T11:34:09;3.60;;;0.80;;
31920;SDS011;66485;52.128;4.436;2023-04-24T11:36:36;2.47;;;0.60;;
31920;SDS011;66485;52.128;4.436;2023-04-24T11:39:01;2.63;;;0.95;;
31920;SDS011;66485;52.128;4.436;2023-04-24T11:41:27;5.40;;;1.05;;
31920;SDS011;66485;52.128;4.436;2023-04-24T11:43:53;5.20;;;1.23;;
31920;SDS011;66485;52.128;4.436;2023-04-24T11:46:20;2.72;;;0.90;;
31920;SDS011;66485;52.128;4.436;2023-04-24T11:48:46;2.95;;;0.70;;
31920;SDS011;66485;52.128;4.436;2023-04-24T11:51:12;1.95;;;0.70;;
31920;SDS011;66485;52.128;4.436;2023-04-24T11:53:38;5.05;;;1.13;;
31920;SDS011;66485;52.128;4.436;2023-04-24T11:56:03;3.60;;;1.00;;
31920;SDS011;66485;52.128;4.436;2023-04-24T11:58:34;2.35;;;0.80;;
31920;SDS011;66485;52.128;4.436;2023-04-24T12:01:00;3.53;;;1.02;;
31920;SDS011;66485;52.128;4.436;2023-04-24T12:03:26;2.88;;;0.80;;
31920;SDS011;66485;52.128;4.436;2023-04-24T12:05:52;3.45;;;1.02;;
31920;SDS011;66485;52.128;4.436;2023-04-24T12:08:27;3.38;;;0.82;;
31920;SDS011;66485;52.128;4.436;2023-04-24T12:10:53;1.60;;;0.55;;
31920;SDS011;66485;52.128;4.436;2023-04-24T12:13:18;4.82;;;1.05;;
31920;SDS011;66485;52.128;4.436;2023-04-24T12:15:44;3.50;;;1.00;;
31920;SDS011;66485;52.128;4.436;2023-04-24T12:18:11;4.22;;;0.82;;
31920;SDS011;66485;52.128;4.436;2023-04-24T12:20:37;2.53;;;0.80;;
31920;SDS011;66485;52.128;4.436;2023-04-24T12:23:03;2.50;;;0.80;;
31920;SDS011;66485;52.128;4.436;2023-04-24T12:30:29;4.05;;;0.93;;
31920;SDS011;66485;52.128;4.436;2023-04-24T12:33:19;2.08;;;0.82;;
31920;SDS011;66485;52.128;4.436;2023-04-24T12:35:47;2.72;;;0.93;;
31920;SDS011;66485;52.128;4.436;2023-04-24T12:38:13;4.45;;;0.93;;
31920;SDS011;66485;52.128;4.436;2023-04-24T12:40:41;4.63;;;0.98;;
31920;SDS011;66485;52.128;4.436;2023-04-24T12:43:14;2.88;;;0.82;;
31920;SDS011;66485;52.128;4.436;2023-04-24T12:45:40;6.10;;;1.17;;
31920;SDS011;66485;52.128;4.436;2023-04-24T12:48:05;6.57;;;1.60;;
31920;SDS011;66485;52.128;4.436;2023-04-24T12:50:31;8.17;;;1.50;;
31920;SDS011;66485;52.128;4.436;2023-04-24T12:52:56;6.45;;;1.77;;
31920;SDS011;66485;52.128;4.436;2023-04-24T12:55:21;7.32;;;1.90;;
31920;SDS011;66485;52.128;4.436;2023-04-24T12:57:47;3.88;;;1.33;;
31920;SDS011;66485;52.128;4.436;2023-04-24T13:00:12;8.45;;;1.73;;
31920;SDS011;66485;52.128;4.436;2023-04-24T13:02:38;7.18;;;1.75;;
31920;SDS011;66485;52.128;4.436;2023-04-24T13:05:04;5.13;;;1.27;;
31920;SDS011;66485;52.128;4.436;2023-04-24T13:07:29;5.22;;;1.52;;
31920;SDS011;66485;52.128;4.436;2023-04-24T13:09:55;7.82;;;2.05;;
31920;SDS011;66485;52.128;4.436;2023-04-24T13:12:21;6.32;;;1.58;;
31920;SDS011;66485;52.128;4.436;2023-04-24T13:14:48;9.15;;;2.25;;
31920;SDS011;66485;52.128;4.436;2023-04-24T13:17:14;12.60;;;2.03;;
31920;SDS011;66485;52.128;4.436;2023-04-24T13:19:40;6.57;;;1.80;;
31920;SDS011;66485;52.128;4.436;2023-04-24T13:22:08;6.90;;;1.63;;
31920;SDS011;66485;52.128;4.436;2023-04-24T13:24:35;11.98;;;1.70;;
31920;SDS011;66485;52.128;4.436;2023-04-24T13:27:00;10.40;;;1.83;;
31920;SDS011;66485;52.128;4.436;2023-04-24T13:29:27;9.23;;;1.80;;
31920;SDS011;66485;52.128;4.436;2023-04-24T13:31:53;13.15;;;2.22;;
31920;SDS011;66485;52.128;4.436;2023-04-24T13:34:20;16.33;;;1.80;;
31920;SDS011;66485;52.128;4.436;2023-04-24T13:36:46;12.60;;;1.65;;
31920;SDS011;66485;52.128;4.436;2023-04-24T13:39:11;11.73;;;1.90;;
31920;SDS011;66485;52.128;4.436;2023-04-24T13:41:37;9.73;;;1.75;;
31920;SDS011;66485;52.128;4.436;2023-04-24T13:44:02;14.55;;;2.00;;
31920;SDS011;66485;52.128;4.436;2023-04-24T13:46:28;8.52;;;1.90;;
31920;SDS011;66485;52.128;4.436;2023-04-24T13:48:54;8.52;;;2.17;;
31920;SDS011;66485;52.128;4.436;2023-04-24T13:51:19;10.85;;;2.00;;
31920;SDS011;66485;52.128;4.436;2023-04-24T13:53:44;13.85;;;1.80;;
31920;SDS011;66485;52.128;4.436;2023-04-24T13:56:10;10.30;;;1.80;;
31920;SDS011;66485;52.128;4.436;2023-04-24T13:58:35;9.55;;;2.00;;
31920;SDS011;66485;52.128;4.436;2023-04-24T14:01:02;7.93;;;1.67;;
31920;SDS011;66485;52.128;4.436;2023-04-24T14:03:28;5.90;;;1.80;;
31920;SDS011;66485;52.128;4.436;2023-04-24T14:05:53;7.18;;;1.73;;
31920;SDS011;66485;52.128;4.436;2023-04-24T14:08:19;9.30;;;2.60;;
31920;SDS011;66485;52.128;4.436;2023-04-24T14:10:44;18.88;;;4.60;;
31920;SDS011;66485;52.128;4.436;2023-04-24T14:13:09;20.25;;;4.88;;
31920;SDS011;66485;52.128;4.436;2023-04-24T14:15:35;26.08;;;6.63;;
31920;SDS011;66485;52.128;4.436;2023-04-24T14:18:01;21.65;;;7.18;;
31920;SDS011;66485;52.128;4.436;2023-04-24T14:20:26;24.38;;;6.78;;
31920;SDS011;66485;52.128;4.436;2023-04-24T14:22:51;22.23;;;6.25;;
31920;SDS011;66485;52.128;4.436;2023-04-24T14:25:18;21.20;;;6.13;;
31920;SDS011;66485;52.128;4.436;2023-04-24T14:27:43;21.20;;;5.80;;
31920;SDS011;66485;52.128;4.436;2023-04-24T14:30:09;22.35;;;5.72;;
31920;SDS011;66485;52.128;4.436;2023-04-24T14:32:34;22.08;;;5.25;;
31920;SDS011;66485;52.128;4.436;2023-04-24T14:35:00;19.50;;;5.35;;
31920;SDS011;66485;52.128;4.436;2023-04-24T14:37:25;28.52;;;7.25;;
31920;SDS011;66485;52.128;4.436;2023-04-24T14:39:51;19.52;;;5.70;;
31920;SDS011;66485;52.128;4.436;2023-04-24T14:42:16;21.23;;;6.15;;
31920;SDS011;66485;52.128;4.436;2023-04-24T14:44:42;25.58;;;5.97;;
31920;SDS011;66485;52.128;4.436;2023-04-24T14:47:07;22.45;;;6.38;;
31920;SDS011;66485;52.128;4.436;2023-04-24T14:49:32;16.73;;;5.25;;
31920;SDS011;66485;52.128;4.436;2023-04-24T14:51:58;22.92;;;4.88;;
31920;SDS011;66485;52.128;4.436;2023-04-24T14:54:23;18.63;;;5.28;;
31920;SDS011;66485;52.128;4.436;2023-04-24T14:56:49;13.35;;;3.72;;